Time;durP1;ratioP1;P1;durP2;ratioP2;P2;SDS_P1;SDS_P2;PMS_P1;PMS_P2;Temp;Humidity;BMP_temperature;BMP_pressure;BME280_temperature;BME280_humidity;BME280_pressure;Samples;Min_cycle;Max_cycle;Signal;HPM_P1;HPM_P2
2021/06/01 00:00:34;;;;;;;8.70;6.37;;;7.90;99.90;;;;;;4980070;28;20270;-78
2021/06/01 00:02:59;;;;;;;12.43;5.63;;;7.90;99.90;;;;;;4981950;28;20183;-78
2021/06/01 00:05:25;;;;;;;8.40;5.97;;;7.90;99.90;;;;;;4982341;28;20215;-78
2021/06/01 00:07:51;;;;;;;8.73;5.20;;;7.90;99.90;;;;;;4980048;28;20187;-78
2021/06/01 00:10:17;;;;;;;7.63;5.17;;;7.80;99.90;;;;;;4982736;28;20257;-78
2021/06/01 00:12:42;;;;;;;10.20;6.00;;;7.90;99.90;;;;;;4981152;28;20230;-78
2021/06/01 00:15:10;;;;;;;11.33;5.37;;;7.90;99.90;;;;;;4983313;28;20179;-78
2021/06/01 00:17:37;;;;;;;10.10;5.87;;;7.90;99.90;;;;;;4983285;28;20567;-78
2021/06/01 00:20:05;;;;;;;10.37;5.17;;;7.90;99.90;;;;;;4984042;28;20215;-78
2021/06/01 00:22:31;;;;;;;6.90;5.67;;;7.80;99.90;;;;;;4983318;28;20193;-78
2021/06/01 00:24:57;;;;;;;8.57;5.47;;;7.80;99.90;;;;;;4983112;28;20197;-78
2021/06/01 00:27:23;;;;;;;7.93;5.83;;;7.70;99.90;;;;;;4984391;28;20216;-78
2021/06/01 00:29:48;;;;;;;6.83;4.87;;;7.70;99.90;;;;;;4985155;28;20541;-78
2021/06/01 00:32:14;;;;;;;7.43;5.03;;;7.70;99.90;;;;;;4981495;28;20210;-78
2021/06/01 00:34:40;;;;;;;6.67;5.10;;;7.60;99.90;;;;;;4979950;28;20655;-78
2021/06/01 00:37:06;;;;;;;7.50;5.33;;;7.60;99.90;;;;;;4980217;28;20179;-78
2021/06/01 00:39:32;;;;;;;8.13;5.33;;;7.50;99.90;;;;;;4978165;28;20207;-78
2021/06/01 00:41:57;;;;;;;6.70;5.23;;;7.40;99.90;;;;;;4980181;28;20726;-78
2021/06/01 00:44:23;;;;;;;8.83;5.33;;;7.40;99.90;;;;;;4979652;28;20177;-78
2021/06/01 00:46:49;;;;;;;7.07;4.80;;;7.30;99.90;;;;;;4978367;28;20170;-77
2021/06/01 00:49:14;;;;;;;6.63;5.20;;;7.40;99.90;;;;;;4977938;28;22439;-78
2021/06/01 00:51:40;;;;;;;6.87;5.00;;;7.30;99.90;;;;;;4978106;28;20210;-78
2021/06/01 00:54:06;;;;;;;9.87;5.67;;;7.30;99.90;;;;;;4979444;28;20173;-78
2021/06/01 00:56:32;;;;;;;5.70;4.27;;;7.20;99.90;;;;;;4978819;28;20176;-78
2021/06/01 00:58:58;;;;;;;9.80;5.00;;;7.10;99.90;;;;;;4976521;28;20201;-77
2021/06/01 01:01:24;;;;;;;7.83;5.33;;;7.10;99.90;;;;;;4978391;28;20534;-78
2021/06/01 01:03:52;;;;;;;7.80;5.20;;;7.10;99.90;;;;;;4977156;28;20186;-77
2021/06/01 01:06:39;;;;;;;10.17;5.47;;;7.10;99.90;;;;;;4978327;28;20644;-78
2021/06/01 01:09:10;;;;;;;8.93;4.70;;;7.10;99.90;;;;;;4977686;28;20233;-77
2021/06/01 01:12:12;;;;;;;5.90;4.60;;;7.10;99.90;;;;;;4985570;28;20193;-78
2021/06/01 01:14:46;;;;;;;7.20;5.17;;;7.20;99.90;;;;;;4976166;28;20221;-78
2021/06/01 01:17:22;;;;;;;7.80;5.13;;;7.10;99.90;;;;;;4980145;28;20169;-78
2021/06/01 01:20:10;;;;;;;5.70;4.83;;;7.00;99.90;;;;;;4979215;28;20280;-79
2021/06/01 01:22:41;;;;;;;7.30;4.97;;;7.00;99.90;;;;;;4980451;28;20244;-78
2021/06/01 01:25:49;;;;;;;7.37;5.07;;;7.00;99.90;;;;;;4982753;28;20180;-78
2021/06/01 01:28:40;;;;;;;6.93;4.93;;;6.90;99.90;;;;;;4964430;28;20547;-78
2021/06/01 01:31:43;;;;;;;8.63;5.43;;;6.90;99.90;;;;;;4982068;28;20174;-77
2021/06/01 01:34:10;;;;;;;7.50;4.80;;;6.80;99.90;;;;;;4983511;28;20218;-79
2021/06/01 01:36:37;;;;;;;6.47;5.43;;;6.80;99.90;;;;;;4983746;28;20174;-78
2021/06/01 01:39:04;;;;;;;7.57;4.63;;;6.70;99.90;;;;;;4983327;28;20224;-78
2021/06/01 01:41:34;;;;;;;7.63;4.67;;;6.70;99.90;;;;;;4984631;28;20179;-78
2021/06/01 01:44:01;;;;;;;7.10;4.50;;;6.70;99.90;;;;;;4984773;28;20195;-78
2021/06/01 01:46:55;;;;;;;7.30;4.67;;;6.80;99.90;;;;;;5000999;28;20182;-79
2021/06/01 01:49:23;;;;;;;6.70;4.60;;;6.70;99.90;;;;;;5001082;28;20281;-78
2021/06/01 01:51:52;;;;;;;5.17;4.33;;;6.70;99.90;;;;;;4987220;28;20205;-78
2021/06/01 01:54:21;;;;;;;5.30;4.13;;;6.60;99.90;;;;;;4983199;28;20185;-78
2021/06/01 01:56:51;;;;;;;8.20;4.73;;;6.60;99.90;;;;;;4984539;28;20202;-78
2021/06/01 01:59:27;;;;;;;5.77;4.60;;;6.60;99.90;;;;;;4985037;28;20190;-78
2021/06/01 02:01:53;;;;;;;6.47;4.70;;;6.50;99.90;;;;;;4984470;28;20193;-77
2021/06/01 02:04:23;;;;;;;10.00;5.03;;;6.50;99.90;;;;;;4983170;28;20300;-78
2021/06/01 02:06:49;;;;;;;6.70;4.53;;;6.50;99.90;;;;;;4982036;28;20177;-78
2021/06/01 02:09:15;;;;;;;6.80;4.80;;;6.40;99.90;;;;;;4981438;28;20229;-78
2021/06/01 02:11:41;;;;;;;6.70;4.70;;;6.40;99.90;;;;;;4981834;28;20203;-78
2021/06/01 02:14:08;;;;;;;6.00;4.50;;;6.40;99.90;;;;;;4981699;28;20652;-79
2021/06/01 02:16:36;;;;;;;8.60;5.10;;;6.30;99.90;;;;;;4996187;28;20180;-78
2021/06/01 02:19:05;;;;;;;8.77;4.80;;;6.30;99.90;;;;;;4981739;28;20249;-78
2021/06/01 02:24:16;;;;;;;4.47;3.93;;;6.30;99.90;;;;;;4981595;28;20178;-78
2021/06/01 02:26:56;;;;;;;5.07;3.97;;;6.30;99.90;;;;;;4980533;28;20193;-78
2021/06/01 02:29:32;;;;;;;4.43;3.50;;;6.30;99.90;;;;;;4980309;28;20206;-78
2021/06/01 02:32:00;;;;;;;4.50;3.40;;;6.30;99.90;;;;;;4982146;28;20227;-78
2021/06/01 02:34:27;;;;;;;4.77;4.23;;;6.30;99.90;;;;;;4985354;28;20271;-78
2021/06/01 02:36:53;;;;;;;10.27;3.97;;;6.40;99.90;;;;;;4981073;28;20184;-78
2021/06/01 02:39:21;;;;;;;7.30;3.80;;;6.40;99.90;;;;;;4979289;28;20194;-78
2021/06/01 02:41:48;;;;;;;5.47;3.97;;;6.30;99.90;;;;;;4981197;28;20266;-78
2021/06/01 02:44:15;;;;;;;4.17;3.70;;;6.30;99.90;;;;;;4979363;28;20186;-78
2021/06/01 02:46:41;;;;;;;4.40;3.70;;;6.40;99.90;;;;;;4981433;28;20181;-78
2021/06/01 02:49:08;;;;;;;5.87;4.00;;;6.30;99.90;;;;;;4981058;28;20552;-78
2021/06/01 02:51:36;;;;;;;5.33;4.03;;;6.30;99.90;;;;;;4981299;28;20190;-78
2021/06/01 02:54:04;;;;;;;5.03;3.77;;;6.30;99.90;;;;;;4981267;28;20182;-78
2021/06/01 02:56:31;;;;;;;5.70;3.93;;;6.20;99.90;;;;;;4981043;28;20169;-78
2021/06/01 02:58:57;;;;;;;11.30;4.20;;;6.10;99.90;;;;;;4979046;28;20196;-78
2021/06/01 03:01:25;;;;;;;5.90;4.50;;;6.10;99.90;;;;;;4980997;28;20210;-78
2021/06/01 03:03:52;;;;;;;7.57;4.60;;;6.10;99.90;;;;;;4979138;28;20547;-78
2021/06/01 03:06:20;;;;;;;5.10;4.37;;;6.10;99.90;;;;;;4978508;28;20182;-78
2021/06/01 03:08:46;;;;;;;6.50;4.50;;;6.00;99.90;;;;;;4980155;28;20200;-78
2021/06/01 03:11:15;;;;;;;7.57;4.77;;;6.10;99.90;;;;;;4979221;28;20184;-78
2021/06/01 03:13:40;;;;;;;7.30;4.67;;;6.00;99.90;;;;;;4978965;28;20178;-78
2021/06/01 03:16:06;;;;;;;5.27;4.60;;;6.10;99.90;;;;;;4980306;28;20511;-78
2021/06/01 03:18:32;;;;;;;8.17;4.60;;;6.10;99.90;;;;;;4979142;28;20689;-78
2021/06/01 03:20:58;;;;;;;5.20;4.53;;;6.10;99.90;;;;;;4980267;28;20199;-78
2021/06/01 03:23:25;;;;;;;4.97;4.20;;;6.00;99.90;;;;;;4980275;28;20201;-78
2021/06/01 03:25:51;;;;;;;7.50;4.80;;;6.00;99.90;;;;;;4981560;28;20260;-78
2021/06/01 03:28:19;;;;;;;6.50;5.23;;;;;;;;;;4982484;28;20200;-78
2021/06/01 03:30:46;;;;;;;6.97;5.07;;;6.10;99.90;;;;;;4982420;28;20641;-78
2021/06/01 03:33:12;;;;;;;10.30;4.47;;;6.10;99.90;;;;;;4982596;28;20208;-78
2021/06/01 03:35:38;;;;;;;11.37;5.83;;;6.00;99.90;;;;;;4982075;28;20428;-79
2021/06/01 03:38:04;;;;;;;10.07;5.43;;;6.00;99.90;;;;;;4984799;28;20764;-78
2021/06/01 03:40:30;;;;;;;6.90;5.00;;;6.00;99.90;;;;;;4983259;28;20200;-78
2021/06/01 03:42:56;;;;;;;7.50;5.57;;;6.00;99.90;;;;;;4985681;28;20657;-79
2021/06/01 03:45:24;;;;;;;6.97;5.13;;;6.10;99.90;;;;;;4985084;28;20422;-78
2021/06/01 03:47:49;;;;;;;5.77;4.80;;;6.00;99.90;;;;;;4983901;28;20188;-79
2021/06/01 03:50:16;;;;;;;5.47;4.80;;;5.90;99.90;;;;;;4982367;28;20555;-79
2021/06/01 03:52:41;;;;;;;8.07;5.27;;;5.80;99.90;;;;;;4980440;28;20286;-79
2021/06/01 03:55:08;;;;;;;5.67;5.03;;;5.80;99.90;;;;;;4979441;28;20227;-79
2021/06/01 03:57:34;;;;;;;9.20;5.60;;;5.90;99.90;;;;;;4989117;28;20176;-79
2021/06/01 04:00:00;;;;;;;6.50;4.77;;;5.90;99.90;;;;;;4983169;28;20906;-79
2021/06/01 04:02:25;;;;;;;6.50;4.90;;;5.90;99.90;;;;;;4982020;28;20271;-79
2021/06/01 04:04:52;;;;;;;7.77;5.13;;;;;;;;;;4982041;28;20184;-79
2021/06/01 04:07:18;;;;;;;5.67;4.97;;;6.00;99.90;;;;;;4980782;28;20184;-79
2021/06/01 04:09:44;;;;;;;9.17;5.30;;;6.10;99.90;;;;;;4982354;28;20235;-79
2021/06/01 04:12:11;;;;;;;7.37;5.00;;;6.10;99.90;;;;;;4998364;28;20212;-78
2021/06/01 04:14:38;;;;;;;6.47;5.30;;;6.20;99.90;;;;;;4979718;28;21007;-78
2021/06/01 04:17:04;;;;;;;5.17;4.53;;;6.30;99.90;;;;;;4979098;28;20404;-78
2021/06/01 04:19:30;;;;;;;6.83;4.53;;;6.40;99.90;;;;;;4977270;28;20451;-78
2021/06/01 04:21:56;;;;;;;6.37;5.17;;;6.40;99.90;;;;;;4977518;28;20419;-78
2021/06/01 04:24:26;;;;;;;5.93;4.73;;;6.50;99.90;;;;;;4978672;28;20816;-78
2021/06/01 04:26:52;;;;;;;7.63;5.30;;;6.50;99.90;;;;;;4977246;28;20259;-78
2021/06/01 04:29:18;;;;;;;4.93;4.43;;;6.50;99.90;;;;;;4978319;28;20734;-78
2021/06/01 04:31:44;;;;;;;4.93;4.40;;;6.60;99.90;;;;;;4977813;28;20287;-78
2021/06/01 04:34:09;;;;;;;8.47;5.20;;;6.70;99.90;;;;;;4977131;28;20183;-78
2021/06/01 04:36:35;;;;;;;4.40;4.00;;;6.70;99.90;;;;;;4975538;28;20187;-77
2021/06/01 04:39:01;;;;;;;5.03;4.23;;;6.70;99.90;;;;;;4984831;28;20301;-78
2021/06/01 04:41:26;;;;;;;5.80;4.73;;;6.70;99.90;;;;;;4978744;28;20187;-79
2021/06/01 04:43:52;;;;;;;5.93;5.13;;;6.80;99.90;;;;;;4980720;28;20183;-78
2021/06/01 04:46:18;;;;;;;4.77;4.10;;;6.80;99.90;;;;;;4981117;28;20176;-79
2021/06/01 04:48:43;;;;;;;6.23;5.07;;;7.00;99.90;;;;;;4979807;28;20255;-78
2021/06/01 04:51:16;;;;;;;6.33;5.10;;;7.00;99.90;;;;;;4978134;28;20258;-77
2021/06/01 04:53:45;;;;;;;5.80;4.80;;;7.30;99.90;;;;;;4976609;28;20656;-79
2021/06/01 04:56:10;;;;;;;6.87;4.60;;;7.30;99.90;;;;;;4977962;28;20207;-78
2021/06/01 04:58:36;;;;;;;7.70;4.50;;;7.50;99.90;;;;;;4976617;28;20423;-78
2021/06/01 05:01:02;;;;;;;5.80;4.60;;;7.50;99.90;;;;;;4976964;28;20184;-78
2021/06/01 05:03:27;;;;;;;5.43;4.57;;;7.70;99.90;;;;;;4977678;28;20188;-78
2021/06/01 05:05:53;;;;;;;5.00;4.50;;;7.80;99.90;;;;;;4978160;28;20240;-78
2021/06/01 05:08:19;;;;;;;6.07;4.70;;;7.90;99.90;;;;;;4976887;28;20189;-78
2021/06/01 05:10:44;;;;;;;5.03;4.40;;;8.00;99.90;;;;;;4979196;28;20212;-78
2021/06/01 05:13:10;;;;;;;5.60;4.73;;;8.00;99.90;;;;;;4979394;28;20197;-78
2021/06/01 05:15:35;;;;;;;6.83;4.60;;;8.10;99.90;;;;;;4979564;28;20208;-78
2021/06/01 05:18:01;;;;;;;5.70;4.57;;;8.30;99.90;;;;;;4977599;28;20189;-78
2021/06/01 05:20:27;;;;;;;6.77;4.70;;;8.40;99.90;;;;;;4975711;28;20201;-78
2021/06/01 05:22:52;;;;;;;7.00;4.57;;;8.50;99.90;;;;;;4978830;28;20185;-79
2021/06/01 05:25:18;;;;;;;4.93;4.23;;;8.60;99.90;;;;;;4978006;28;20191;-78
2021/06/01 05:27:44;;;;;;;10.17;4.93;;;8.80;99.90;;;;;;4975640;28;20178;-78
2021/06/01 05:30:10;;;;;;;6.40;4.67;;;9.00;99.90;;;;;;4976736;28;20200;-78
2021/06/01 05:35:15;;;;;;;6.43;4.30;;;9.20;99.90;;;;;;4980512;28;20178;-81
2021/06/01 05:37:41;;;;;;;5.97;3.97;;;9.30;99.90;;;;;;4979102;28;20180;-80
2021/06/01 05:40:07;;;;;;;6.23;3.80;;;9.50;99.90;;;;;;4978320;28;20286;-79
2021/06/01 05:42:33;;;;;;;6.23;3.73;;;9.50;99.90;;;;;;4977392;28;20181;-81
2021/06/01 05:44:58;;;;;;;4.57;3.80;;;9.60;99.90;;;;;;4979431;28;20186;-81
2021/06/01 05:47:24;;;;;;;4.57;3.67;;;9.80;99.90;;;;;;4979667;28;20190;-79
2021/06/01 05:49:49;;;;;;;7.30;4.00;;;9.90;99.90;;;;;;4979205;28;20215;-80
2021/06/01 05:52:15;;;;;;;6.00;4.57;;;10.00;99.90;;;;;;4979881;28;20314;-80
2021/06/01 05:54:41;;;;;;;7.33;4.00;;;10.00;99.90;;;;;;4977396;28;20204;-83
2021/06/01 05:57:07;;;;;;;6.50;3.87;;;10.20;99.90;;;;;;4978593;28;20180;-81
2021/06/01 05:59:33;;;;;;;7.33;3.90;;;10.30;99.90;;;;;;4979851;28;20195;-80
2021/06/01 06:01:59;;;;;;;10.23;4.30;;;10.40;99.90;;;;;;4980723;28;20638;-81
2021/06/01 06:04:24;;;;;;;4.17;3.53;;;10.50;99.90;;;;;;4981018;28;20284;-82
2021/06/01 06:06:50;;;;;;;5.47;3.33;;;10.70;99.90;;;;;;4979345;28;20181;-81
2021/06/01 06:09:16;;;;;;;5.70;4.47;;;10.80;99.90;;;;;;4979953;28;20666;-80
2021/06/01 06:11:41;;;;;;;8.53;3.63;;;11.00;99.90;;;;;;4982732;28;20196;-82
2021/06/01 06:14:07;;;;;;;6.40;3.13;;;11.10;99.90;;;;;;4984581;28;20190;-82
2021/06/01 06:16:49;;;;;;;8.87;3.73;;;11.10;99.90;;;;;;4984671;28;20236;-81
2021/06/01 06:19:15;;;;;;;6.63;4.20;;;11.30;99.90;;;;;;4983370;28;20604;-80
2021/06/01 06:21:41;;;;;;;8.13;4.43;;;11.40;99.90;;;;;;4985313;28;20180;-81
2021/06/01 06:24:06;;;;;;;4.20;3.73;;;11.50;99.90;;;;;;4985232;28;20177;-81
2021/06/01 06:26:32;;;;;;;5.60;3.40;;;11.70;99.90;;;;;;4990401;28;20182;-80
2021/06/01 06:28:58;;;;;;;5.93;4.17;;;11.70;99.90;;;;;;4983987;28;20203;-80
2021/06/01 06:31:24;;;;;;;8.83;4.30;;;11.80;99.90;;;;;;4983021;28;20187;-79
2021/06/01 06:33:49;;;;;;;7.80;3.40;;;11.90;99.90;;;;;;4985957;28;20182;-79
2021/06/01 06:36:15;;;;;;;4.43;3.80;;;12.10;99.90;;;;;;4989819;28;20177;-79
2021/06/01 06:38:42;;;;;;;9.03;4.10;;;12.20;99.90;;;;;;4979022;28;20592;-79
2021/06/01 06:43:38;;;;;;;6.60;3.60;;;12.50;99.90;;;;;;4983733;28;20153;-79
2021/06/01 06:46:13;;;;;;;5.10;3.10;;;12.70;99.90;;;;;;4983787;28;20522;-79
2021/06/01 06:48:39;;;;;;;3.73;2.83;;;12.90;99.90;;;;;;4982040;28;20593;-79
2021/06/01 06:51:14;;;;;;;6.77;2.90;;;13.10;99.90;;;;;;4981086;28;20518;-79
2021/06/01 06:53:55;;;;;;;3.63;2.87;;;13.20;99.90;;;;;;4982428;28;20164;-80
2021/06/01 06:56:23;;;;;;;2.80;2.47;;;13.40;99.90;;;;;;4985993;28;20239;-80
2021/06/01 06:58:49;;;;;;;3.73;2.03;;;13.60;99.90;;;;;;4983306;28;20201;-80
2021/06/01 07:01:15;;;;;;;3.57;2.00;;;13.90;99.90;;;;;;4999302;28;20595;-79
2021/06/01 07:03:41;;;;;;;2.43;1.97;;;14.10;99.90;;;;;;4982823;28;20187;-79
2021/06/01 07:06:07;;;;;;;4.23;1.97;;;14.30;99.90;;;;;;4982104;28;20180;-80
2021/06/01 07:08:33;;;;;;;3.33;1.80;;;14.40;99.90;;;;;;4982809;28;20188;-79
2021/06/01 07:10:59;;;;;;;2.70;1.97;;;14.60;99.90;;;;;;4982677;28;20184;-80
2021/06/01 07:13:41;;;;;;;5.07;2.30;;;14.70;99.90;;;;;;4982327;28;20270;-79
2021/06/01 07:16:07;;;;;;;3.80;1.73;;;14.70;99.90;;;;;;4982207;28;20243;-79
2021/06/01 07:18:36;;;;;;;6.40;1.90;;;14.80;99.90;;;;;;4981094;28;20222;-79
2021/06/01 07:21:02;;;;;;;3.00;1.77;;;15.00;99.90;;;;;;4980264;28;20211;-79
2021/06/01 07:23:28;;;;;;;7.57;1.90;;;15.10;99.90;;;;;;4982004;28;20183;-80
2021/06/01 07:25:54;;;;;;;2.27;1.57;;;15.20;99.90;;;;;;4981393;28;20188;-80
2021/06/01 07:28:19;;;;;;;2.03;1.73;;;15.40;99.90;;;;;;4980682;28;20195;-79
2021/06/01 07:30:45;;;;;;;4.27;2.00;;;15.50;99.60;;;;;;4982403;28;20647;-80
2021/06/01 07:33:11;;;;;;;2.47;1.80;;;15.60;98.40;;;;;;4982763;28;20207;-80
2021/06/01 07:35:38;;;;;;;4.73;1.60;;;15.70;97.40;;;;;;4981475;28;20204;-80
2021/06/01 07:38:03;;;;;;;4.27;1.83;;;15.90;96.90;;;;;;4981802;28;20187;-80
2021/06/01 07:40:29;;;;;;;9.10;2.10;;;15.90;97.60;;;;;;4980724;28;20298;-80
2021/06/01 07:42:56;;;;;;;4.13;1.67;;;16.10;97.80;;;;;;4983522;28;20207;-80
2021/06/01 07:45:24;;;;;;;5.93;2.20;;;16.20;96.40;;;;;;4998187;28;20188;-80
2021/06/01 07:47:50;;;;;;;2.13;1.70;;;16.30;95.10;;;;;;4980325;28;20195;-80
2021/06/01 07:50:15;;;;;;;2.20;1.97;;;16.30;93.40;;;;;;4980462;28;20224;-79
2021/06/01 07:52:41;;;;;;;8.20;1.87;;;16.30;93.70;;;;;;4980801;28;20627;-80
2021/06/01 07:55:07;;;;;;;3.70;1.70;;;16.40;93.90;;;;;;4983035;28;20177;-79
2021/06/01 07:57:33;;;;;;;3.17;1.80;;;16.60;92.20;;;;;;4981039;28;20211;-80
2021/06/01 07:59:59;;;;;;;3.60;1.70;;;16.70;92.40;;;;;;4981458;28;20540;-79
2021/06/01 08:02:24;;;;;;;6.73;1.87;;;16.70;90.80;;;;;;4981137;28;20259;-80
2021/06/01 08:04:52;;;;;;;3.57;1.90;;;16.80;90.90;;;;;;4983057;28;20216;-80
2021/06/01 08:07:19;;;;;;;2.10;1.90;;;17.00;90.40;;;;;;4982435;28;20182;-80
2021/06/01 08:09:45;;;;;;;2.97;1.60;;;17.00;90.40;;;;;;4982864;28;20290;-80
2021/06/01 08:12:10;;;;;;;5.50;1.80;;;17.30;90.80;;;;;;4983267;28;20229;-80
2021/06/01 08:14:36;;;;;;;12.40;2.20;;;17.30;89.00;;;;;;4981806;28;20551;-80
2021/06/01 08:17:03;;;;;;;6.77;2.03;;;17.50;89.30;;;;;;4983234;28;20181;-80
2021/06/01 08:19:32;;;;;;;2.80;1.80;;;17.60;83.70;;;;;;4982865;28;20709;-80
2021/06/01 08:22:02;;;;;;;2.50;1.67;;;17.80;86.30;;;;;;4982895;28;20177;-81
2021/06/01 08:24:28;;;;;;;3.20;1.77;;;18.00;80.80;;;;;;4983006;28;20551;-80
2021/06/01 08:26:54;;;;;;;5.10;2.00;;;18.10;81.00;;;;;;4982339;28;20193;-80
2021/06/01 08:29:20;;;;;;;2.93;2.10;;;18.30;81.90;;;;;;4987297;28;20205;-79
2021/06/01 08:31:46;;;;;;;2.20;2.00;;;18.70;77.10;;;;;;4989440;28;20210;-79
2021/06/01 08:34:12;;;;;;;2.33;1.90;;;19.10;74.50;;;;;;4991015;28;20171;-80
2021/06/01 08:36:38;;;;;;;2.20;2.00;;;19.90;71.10;;;;;;4990766;28;20186;-79
2021/06/01 08:39:06;;;;;;;2.73;1.90;;;20.60;74.10;;;;;;4988686;28;20202;-79
2021/06/01 08:41:33;;;;;;;3.30;2.17;;;21.20;70.60;;;;;;4980002;28;20179;-79
2021/06/01 08:44:01;;;;;;;2.33;1.90;;;21.60;70.50;;;;;;4980010;28;20208;-79
2021/06/01 08:46:27;;;;;;;3.90;2.17;;;21.90;68.50;;;;;;4980659;28;20223;-79
2021/06/01 08:48:54;;;;;;;3.37;1.90;;;22.00;65.80;;;;;;4986314;28;20196;-81
2021/06/01 08:51:21;;;;;;;2.27;1.90;;;22.30;69.80;;;;;;4982674;28;20247;-80
2021/06/01 08:53:50;;;;;;;5.23;2.00;;;22.80;65.10;;;;;;4985510;28;20169;-81
2021/06/01 08:56:17;;;;;;;3.70;2.30;;;22.50;64.80;;;;;;4986794;28;20180;-79
2021/06/01 08:58:45;;;;;;;4.47;1.80;;;22.00;61.70;;;;;;4975792;28;20204;-80
2021/06/01 09:01:11;;;;;;;2.50;1.80;;;22.30;63.80;;;;;;4980618;28;20187;-79
2021/06/01 09:03:48;;;;;;;3.53;1.97;;;22.60;61.10;;;;;;4977872;28;20184;-79
2021/06/01 09:06:30;;;;;;;2.33;1.93;;;22.70;64.30;;;;;;4977514;28;20180;-79
2021/06/01 09:22:51;;;;;;;1.80;1.70;;;23.80;58.90;;;;;;4975283;28;20171;-76
2021/06/01 09:26:01;;;;;;;2.97;1.97;;;23.90;59.50;;;;;;4935168;29;20206;-77
2021/06/01 09:28:13;;;;;;;2.30;1.80;;;23.60;55.60;;;;;;4966196;28;20662;-77
2021/06/01 09:30:42;;;;;;;1.70;1.60;;;23.00;55.60;;;;;;4975133;28;20195;-77
2021/06/01 09:33:12;;;;;;;2.20;2.00;;;23.00;55.80;;;;;;4974255;28;20227;-77
2021/06/01 09:35:51;;;;;;;3.30;2.00;;;23.10;59.50;;;;;;4974711;28;20687;-77
2021/06/01 09:38:21;;;;;;;2.10;1.90;;;22.90;56.30;;;;;;4973262;28;20623;-77
2021/06/01 09:40:49;;;;;;;3.33;1.90;;;22.90;55.60;;;;;;4975129;28;20181;-79
2021/06/01 09:43:16;;;;;;;2.67;1.80;;;23.30;56.80;;;;;;4975360;28;20716;-78
2021/06/01 09:45:44;;;;;;;2.17;1.97;;;23.70;57.90;;;;;;4978781;28;20181;-77
2021/06/01 09:48:12;;;;;;;4.27;1.90;;;23.70;55.70;;;;;;4978578;28;20210;-76
2021/06/01 09:50:55;;;;;;;2.93;1.60;;;23.90;56.00;;;;;;4975295;28;20225;-77
2021/06/01 09:53:27;;;;;;;3.50;2.00;;;23.80;56.00;;;;;;4980600;28;20265;-77
2021/06/01 09:55:54;;;;;;;3.33;1.80;;;23.70;57.80;;;;;;4977792;28;20593;-78
2021/06/01 09:58:30;;;;;;;3.70;2.00;;;23.80;56.90;;;;;;4979603;28;20184;-77
2021/06/01 10:00:58;;;;;;;3.70;2.00;;;23.70;55.20;;;;;;4978216;28;20198;-75
2021/06/01 10:03:35;;;;;;;4.30;1.97;;;23.40;56.60;;;;;;4977980;28;20578;-77
2021/06/01 10:06:01;;;;;;;2.13;1.80;;;23.50;55.40;;;;;;4992878;28;20633;-77
2021/06/01 10:08:30;;;;;;;9.47;2.27;;;23.40;56.50;;;;;;4978512;28;20180;-78
2021/06/01 10:11:04;;;;;;;4.20;2.20;;;23.60;56.50;;;;;;4982441;28;20207;-78
2021/06/01 10:13:33;;;;;;;3.00;2.00;;;23.80;60.00;;;;;;4981965;28;20238;-78
2021/06/01 10:16:05;;;;;;;2.60;2.17;;;24.30;58.10;;;;;;4983886;28;20173;-78
2021/06/01 10:18:30;;;;;;;3.13;2.23;;;24.40;56.50;;;;;;4982550;28;20174;-78
2021/06/01 10:21:02;;;;;;;3.63;2.13;;;24.10;53.70;;;;;;4981287;28;20180;-78
2021/06/01 10:23:32;;;;;;;2.90;1.70;;;23.60;57.30;;;;;;4984041;28;20184;-80
2021/06/01 10:25:59;;;;;;;2.27;1.90;;;23.80;55.80;;;;;;4981787;28;20227;-81
2021/06/01 10:28:30;;;;;;;2.30;1.80;;;24.00;54.40;;;;;;4980226;28;20176;-78
2021/06/01 10:30:57;;;;;;;5.33;2.53;;;23.80;54.50;;;;;;4981991;28;20191;-78
2021/06/01 10:33:25;;;;;;;2.13;1.83;;;23.70;56.00;;;;;;4983061;28;20214;-80
2021/06/01 10:36:04;;;;;;;5.73;1.80;;;24.10;56.10;;;;;;4970650;28;20184;-80
2021/06/01 10:50:23;;;;;;;3.63;1.80;;;24.20;54.60;;;;;;4947271;28;20299;-81
2021/06/01 10:53:10;;;;;;;3.83;1.90;;;25.00;56.80;;;;;;4984121;28;20212;-79
2021/06/01 10:55:48;;;;;;;6.23;1.97;;;25.30;55.50;;;;;;4966804;28;20189;-79
2021/06/01 10:58:15;;;;;;;4.30;2.03;;;25.30;53.40;;;;;;4984189;28;20199;-80
2021/06/01 11:03:15;;;;;;;2.90;1.60;;;24.90;51.70;;;;;;4984408;28;20195;-78
2021/06/01 11:06:07;;;;;;;4.00;1.90;;;24.80;53.80;;;;;;4984524;28;20180;-81
2021/06/01 11:08:45;;;;;;;1.77;1.43;;;24.80;53.30;;;;;;4973957;28;20250;-80
2021/06/01 11:11:33;;;;;;;2.37;1.60;;;25.30;54.20;;;;;;5001637;28;20192;-81
2021/06/01 11:14:32;;;;;;;2.90;1.63;;;25.30;53.40;;;;;;4989476;28;20696;-81
2021/06/01 11:17:00;;;;;;;3.47;1.70;;;25.50;52.70;;;;;;4979014;28;20191;-79
2021/06/01 11:19:45;;;;;;;2.27;1.80;;;25.60;54.10;;;;;;4984477;28;20200;-81
2021/06/01 11:22:22;;;;;;;5.53;1.50;;;25.80;52.00;;;;;;4980981;28;20693;-80
2021/06/01 11:33:26;;;;;;;3.73;1.50;;;26.20;46.90;;;;;;4980133;28;20575;-78
2021/06/01 11:36:00;;;;;;;2.20;1.40;;;25.70;47.70;;;;;;4979601;28;20522;-79
2021/06/01 11:38:36;;;;;;;2.97;1.40;;;26.00;48.90;;;;;;4981988;28;20170;-78
2021/06/01 11:43:49;;;;;;;2.37;1.40;;;27.10;49.70;;;;;;4981353;28;20192;-77
2021/06/01 11:51:21;;;;;;;5.20;2.60;;;27.20;45.50;;;;;;4981474;28;20191;-79
2021/06/01 11:53:49;;;;;;;5.00;1.90;;;27.40;48.60;;;;;;4979045;28;20248;-78
2021/06/01 11:56:19;;;;;;;5.20;1.90;;;27.90;46.00;;;;;;4981166;28;20249;-77
2021/06/01 12:04:45;;;;;;;3.33;1.60;;;28.40;45.90;;;;;;4977629;28;20208;-78
2021/06/01 12:18:36;;;;;;;4.03;1.37;;;29.40;42.30;;;;;;4976106;28;20160;-77
2021/06/01 12:21:03;;;;;;;1.33;1.23;;;29.10;41.70;;;;;;4975728;28;20260;-77
2021/06/01 12:23:44;;;;;;;1.67;1.40;;;28.90;41.80;;;;;;4978378;28;20174;-78
2021/06/01 12:32:04;;;;;;;4.90;1.90;;;29.70;43.00;;;;;;4980463;28;20207;-78
2021/06/01 13:40:15;;;;;;;5.73;1.50;;;29.80;41.50;;;;;;4989136;28;20206;-79
2021/06/01 13:56:29;;;;;;;1.40;1.30;;;29.80;38.40;;;;;;4991861;28;20185;-79
2021/06/01 14:19:27;;;;;;;1.57;1.23;;;29.40;37.40;;;;;;4993513;28;20189;-79
2021/06/01 14:21:19;;;;;;;2.63;1.57;;;28.90;39.40;;;;;;4987234;28;20255;-79
2021/06/01 15:10:53;;;;;;;2.70;1.17;;;29.80;37.30;;;;;;4986783;28;20280;-78
2021/06/01 15:30:12;;;;;;;1.37;1.20;;;28.80;36.40;;;;;;4976420;28;20213;-79
2021/06/01 15:49:50;;;;;;;6.03;1.30;;;28.30;38.10;;;;;;4982287;28;20211;-78
2021/06/01 16:11:26;;;;;;;1.70;1.60;;;25.90;40.40;;;;;;4977820;28;20175;-77
2021/06/01 16:14:02;;;;;;;2.57;1.80;;;25.90;39.50;;;;;;4976170;28;20188;-76
2021/06/01 16:44:29;;;;;;;4.47;2.90;;;20.80;46.50;;;;;;4976368;28;20636;-77
2021/06/01 17:03:31;;;;;;;3.33;1.73;;;20.10;48.10;;;;;;4976053;28;20633;-78
2021/06/01 17:06:07;;;;;;;3.37;1.60;;;20.10;47.90;;;;;;4974514;28;20172;-78
2021/06/01 17:11:19;;;;;;;2.70;1.50;;;20.00;49.50;;;;;;4976485;28;20161;-78
2021/06/01 17:13:54;;;;;;;4.20;1.70;;;19.90;49.20;;;;;;4977014;28;20671;-80
2021/06/01 17:16:57;;;;;;;3.37;1.50;;;19.80;48.50;;;;;;4975056;28;20534;-78
2021/06/01 17:35:36;;;;;;;2.93;1.60;;;19.30;51.90;;;;;;4976097;28;20227;-77
2021/06/01 17:38:04;;;;;;;3.03;1.80;;;19.30;52.00;;;;;;4974731;28;20191;-77
2021/06/01 17:40:30;;;;;;;6.90;1.70;;;19.20;51.50;;;;;;4974648;28;20612;-77
2021/06/01 17:43:04;;;;;;;6.63;1.70;;;19.10;51.60;;;;;;4975671;28;20177;-77
2021/06/01 17:45:35;;;;;;;3.30;1.57;;;19.00;53.00;;;;;;4975030;28;20175;-77
2021/06/01 17:48:05;;;;;;;2.87;1.50;;;18.90;52.70;;;;;;4975206;28;20226;-77
2021/06/01 17:50:31;;;;;;;3.87;1.33;;;18.80;53.90;;;;;;4974715;28;20206;-77
2021/06/01 17:53:01;;;;;;;1.77;1.43;;;18.80;54.50;;;;;;4975080;28;20205;-76
2021/06/01 17:55:30;;;;;;;4.23;1.40;;;18.70;54.60;;;;;;4981306;28;20171;-77
2021/06/01 17:57:57;;;;;;;3.70;1.57;;;18.60;54.00;;;;;;4974865;28;20177;-78
2021/06/01 18:00:24;;;;;;;5.73;1.70;;;18.60;54.20;;;;;;4975661;28;20199;-78
2021/06/01 18:02:51;;;;;;;3.03;1.40;;;18.50;54.90;;;;;;4958746;28;20172;-77
2021/06/01 18:05:19;;;;;;;3.77;1.43;;;18.40;55.10;;;;;;4972210;28;20183;-78
2021/06/01 18:08:09;;;;;;;6.97;1.80;;;18.30;54.90;;;;;;4960513;28;20192;-77
2021/06/01 19:01:12;;;;;;;2.60;1.80;;;16.60;61.20;;;;;;4980449;28;20199;-80
2021/06/01 19:25:14;;;;;;;4.17;1.70;;;15.80;67.40;;;;;;4984695;28;20191;-80
2021/06/01 19:49:59;;;;;;;3.77;2.00;;;15.00;69.90;;;;;;4984003;28;20271;-80
2021/06/01 19:52:27;;;;;;;2.07;1.60;;;15.00;71.20;;;;;;4966372;28;20204;-80
2021/06/01 19:54:55;;;;;;;5.23;2.00;;;14.90;70.20;;;;;;4984193;28;20173;-80
2021/06/01 19:57:23;;;;;;;5.20;2.13;;;14.80;70.80;;;;;;4967545;28;20183;-80
2021/06/01 19:59:51;;;;;;;3.27;1.83;;;14.80;76.00;;;;;;4985362;28;20207;-80
2021/06/01 20:02:26;;;;;;;2.60;1.83;;;14.50;71.80;;;;;;4967565;28;20622;-80
2021/06/01 20:04:54;;;;;;;4.03;1.50;;;14.60;74.40;;;;;;4985991;28;20157;-80
2021/06/01 20:07:21;;;;;;;2.90;1.83;;;14.50;69.10;;;;;;4987305;28;20168;-80
2021/06/01 20:09:47;;;;;;;2.83;1.80;;;14.30;79.80;;;;;;4966164;28;20212;-80
2021/06/01 20:12:13;;;;;;;3.23;2.10;;;14.30;76.60;;;;;;4980756;28;20234;-80